Time;durP1;ratioP1;P1;durP2;ratioP2;P2;SDS_P1;SDS_P2;PMS_P1;PMS_P2;Temp;Humidity;BMP_temperature;BMP_pressure;BME280_temperature;BME280_humidity;BME280_pressure;Samples;Min_cycle;Max_cycle;Signal;HPM_P1;HPM_P2
2022/03/09 00:03:54;;;;;;;7.95;3.22;;;-1.00;96.70;;;;;;10232596;28;20053;-88
2022/03/09 00:08:58;;;;;;;13.60;3.70;;;-1.00;97.70;;;;;;10185143;28;20142;-88
2022/03/09 00:14:00;;;;;;;9.02;3.47;;;-1.10;97.70;;;;;;10215981;28;20086;-87
2022/03/09 00:19:03;;;;;;;9.55;3.75;;;-1.10;98.70;;;;;;10231185;28;20043;-85
2022/03/09 00:24:05;;;;;;;10.45;3.80;;;-1.20;99.00;;;;;;10201383;28;20054;-85
2022/03/09 00:29:07;;;;;;;8.40;2.70;;;-1.20;99.80;;;;;;10197641;28;20114;-86
2022/03/09 00:34:09;;;;;;;6.45;3.38;;;-1.30;99.90;;;;;;10230607;28;20103;-85
2022/03/09 00:39:10;;;;;;;15.75;3.45;;;-1.30;99.90;;;;;;10215563;28;20039;-85
2022/03/09 00:44:12;;;;;;;8.60;2.55;;;-1.40;99.90;;;;;;10230242;28;20402;-86
2022/03/09 00:49:15;;;;;;;6.07;2.40;;;-1.40;99.90;;;;;;10223090;28;20051;-86
2022/03/09 00:54:16;;;;;;;5.95;2.40;;;-1.50;99.90;;;;;;10261741;28;20027;-86
2022/03/09 00:59:18;;;;;;;4.25;2.00;;;-1.50;99.90;;;;;;10245336;28;20110;-88
2022/03/09 01:04:20;;;;;;;11.02;2.50;;;-1.50;99.90;;;;;;10263892;28;20122;-87
2022/03/09 01:09:22;;;;;;;6.53;1.83;;;-1.50;99.90;;;;;;10281013;28;20125;-87
2022/03/09 01:14:25;;;;;;;7.28;2.50;;;-1.60;99.90;;;;;;10256359;28;20153;-87
2022/03/09 01:19:27;;;;;;;7.07;2.45;;;-1.60;99.90;;;;;;10261767;28;20123;-86
2022/03/09 01:24:29;;;;;;;12.25;2.60;;;-1.70;99.90;;;;;;10258510;28;20049;-86
2022/03/09 01:29:31;;;;;;;8.63;2.53;;;-1.70;99.90;;;;;;10249491;28;20046;-86
2022/03/09 01:34:32;;;;;;;4.22;1.92;;;-1.70;99.90;;;;;;10246274;28;20042;-86
2022/03/09 01:39:34;;;;;;;6.22;1.98;;;-1.80;99.90;;;;;;10262320;28;20137;-86
2022/03/09 01:44:36;;;;;;;7.70;2.38;;;-1.80;99.90;;;;;;10256163;28;20054;-87
2022/03/09 01:49:39;;;;;;;6.03;2.10;;;-1.80;99.90;;;;;;10267780;28;20490;-87
2022/03/09 01:54:41;;;;;;;7.50;1.73;;;-1.80;99.90;;;;;;10257695;28;20055;-87
2022/03/09 01:59:46;;;;;;;8.20;2.63;;;-1.80;99.90;;;;;;10260178;28;20426;-87
2022/03/09 02:04:48;;;;;;;8.90;1.85;;;-1.90;99.90;;;;;;10266542;28;20066;-87
2022/03/09 02:09:51;;;;;;;5.88;2.45;;;-1.90;99.90;;;;;;10245641;28;20054;-87
2022/03/09 02:14:54;;;;;;;4.35;2.15;;;-1.90;99.90;;;;;;10251505;28;20050;-87
2022/03/09 02:19:57;;;;;;;5.80;2.25;;;-2.00;99.90;;;;;;10276966;28;20059;-87
2022/03/09 02:25:01;;;;;;;4.03;2.38;;;-2.00;99.90;;;;;;10246486;28;20057;-86
2022/03/09 02:30:04;;;;;;;5.70;1.85;;;-2.00;99.90;;;;;;10247035;28;20337;-86
2022/03/09 02:35:06;;;;;;;8.38;3.80;;;-2.00;99.90;;;;;;10253019;28;20054;-87
2022/03/09 02:40:10;;;;;;;17.52;6.10;;;-2.10;99.90;;;;;;10246501;28;20059;-87
2022/03/09 02:45:12;;;;;;;7.97;3.67;;;-2.10;99.90;;;;;;10254576;28;20078;-87
2022/03/09 02:50:15;;;;;;;6.22;2.10;;;-2.20;99.90;;;;;;10242875;28;20066;-86
2022/03/09 02:55:18;;;;;;;3.05;1.40;;;-2.20;99.90;;;;;;10225949;28;20043;-86
2022/03/09 03:00:20;;;;;;;4.70;2.22;;;-2.20;99.90;;;;;;10230531;28;20050;-86
2022/03/09 03:05:22;;;;;;;7.85;2.35;;;-2.20;99.90;;;;;;10231302;28;20075;-87
2022/03/09 03:10:23;;;;;;;6.72;2.33;;;-2.20;99.90;;;;;;10243480;28;20402;-86
2022/03/09 03:15:25;;;;;;;4.97;2.00;;;-2.30;99.90;;;;;;10233118;28;20402;-87
2022/03/09 03:20:27;;;;;;;10.25;1.95;;;-2.30;99.90;;;;;;10245982;28;20061;-87
2022/03/09 03:25:29;;;;;;;5.88;1.70;;;-2.40;99.90;;;;;;10259691;28;20066;-87
2022/03/09 03:30:31;;;;;;;7.20;2.03;;;-2.40;99.90;;;;;;10239044;28;20051;-86
2022/03/09 03:35:33;;;;;;;7.13;2.08;;;-2.40;99.90;;;;;;10257244;28;20043;-87
2022/03/09 03:40:35;;;;;;;10.38;2.22;;;-2.40;99.90;;;;;;10254481;28;20074;-86
2022/03/09 03:45:37;;;;;;;5.15;2.33;;;-2.50;99.90;;;;;;10247926;28;20049;-86
2022/03/09 03:50:38;;;;;;;7.13;1.65;;;-2.50;99.90;;;;;;10263532;28;20047;-86
2022/03/09 03:55:40;;;;;;;6.38;2.17;;;-2.60;99.90;;;;;;10238074;28;20090;-86
2022/03/09 04:00:42;;;;;;;7.90;2.35;;;-2.60;99.90;;;;;;10268204;28;20050;-86
2022/03/09 04:05:44;;;;;;;7.78;1.70;;;-2.60;99.90;;;;;;10253769;28;20561;-86
2022/03/09 04:10:46;;;;;;;6.28;2.03;;;-2.60;99.90;;;;;;10266906;28;20043;-87
2022/03/09 04:15:48;;;;;;;2.72;1.38;;;-2.70;99.90;;;;;;10244154;28;20051;-86
2022/03/09 04:20:50;;;;;;;6.35;1.77;;;-2.70;99.90;;;;;;10247098;28;20342;-86
2022/03/09 04:25:51;;;;;;;7.22;2.40;;;-2.70;99.90;;;;;;10242699;28;20046;-86
2022/03/09 04:30:53;;;;;;;10.20;3.08;;;-2.70;99.90;;;;;;10242358;28;20055;-86
2022/03/09 04:35:55;;;;;;;10.55;3.25;;;-2.80;99.90;;;;;;10242503;28;20063;-87
2022/03/09 04:40:57;;;;;;;8.80;2.97;;;-2.90;99.90;;;;;;10228831;28;20410;-87
2022/03/09 04:45:59;;;;;;;10.30;3.08;;;-2.90;99.90;;;;;;10243102;28;20060;-86
2022/03/09 04:51:02;;;;;;;7.65;1.73;;;-2.90;99.90;;;;;;10239304;28;20063;-86
2022/03/09 04:56:04;;;;;;;5.00;1.73;;;-2.90;99.90;;;;;;10231438;28;20082;-86
2022/03/09 05:01:06;;;;;;;7.88;2.17;;;-2.90;99.90;;;;;;10258320;28;20089;-87
2022/03/09 05:06:09;;;;;;;13.65;2.58;;;-2.90;99.90;;;;;;10242803;28;20053;-87
2022/03/09 05:11:11;;;;;;;10.27;2.72;;;-3.00;99.90;;;;;;10231159;28;20114;-87
2022/03/09 05:16:14;;;;;;;7.00;3.30;;;-3.00;99.90;;;;;;10007133;28;20168;-87
2022/03/09 05:21:17;;;;;;;10.40;4.47;;;-3.00;99.90;;;;;;9755998;28;20278;-87
2022/03/09 05:26:19;;;;;;;10.45;4.07;;;-3.00;99.90;;;;;;9739724;28;20410;-87
2022/03/09 05:31:21;;;;;;;8.35;3.35;;;-3.00;99.90;;;;;;10015192;28;20047;-87
2022/03/09 05:36:23;;;;;;;6.60;2.50;;;-3.00;99.90;;;;;;10242760;28;20054;-87
2022/03/09 05:41:24;;;;;;;5.30;1.85;;;-3.00;99.90;;;;;;10243936;28;20057;-86
2022/03/09 05:46:26;;;;;;;9.25;3.58;;;-3.10;99.90;;;;;;10245551;28;20066;-88
2022/03/09 05:51:28;;;;;;;8.95;2.22;;;-3.00;99.90;;;;;;10256596;28;20043;-87
2022/03/09 05:56:30;;;;;;;9.85;2.03;;;-3.00;99.90;;;;;;10251556;28;20142;-87
2022/03/09 06:01:32;;;;;;;13.18;3.90;;;-3.00;99.90;;;;;;9948800;28;20080;-85
2022/03/09 06:06:34;;;;;;;8.13;3.75;;;-3.00;99.90;;;;;;9732450;28;20317;-86
2022/03/09 06:11:37;;;;;;;25.02;3.67;;;-3.00;99.90;;;;;;9744107;28;20267;-86
2022/03/09 06:16:39;;;;;;;8.00;2.28;;;-3.00;99.90;;;;;;9790808;28;20126;-88
2022/03/09 06:21:41;;;;;;;6.65;2.92;;;-2.90;99.90;;;;;;10235045;28;20055;-87
2022/03/09 06:26:44;;;;;;;4.82;2.47;;;-2.90;99.90;;;;;;10262741;28;20065;-87
2022/03/09 06:31:46;;;;;;;8.02;2.45;;;-2.80;99.90;;;;;;10251661;28;20050;-87
2022/03/09 06:36:48;;;;;;;8.05;2.47;;;-2.70;99.90;;;;;;10272763;28;20053;-86
2022/03/09 06:41:50;;;;;;;7.97;2.90;;;-2.60;99.90;;;;;;10262365;28;20130;-87
2022/03/09 06:46:52;;;;;;;8.80;2.50;;;-2.60;99.90;;;;;;10267551;28;20051;-88
2022/03/09 06:51:54;;;;;;;9.88;2.85;;;-2.40;99.90;;;;;;10259667;28;20053;-87
2022/03/09 06:56:56;;;;;;;10.55;2.40;;;-2.40;99.90;;;;;;10259467;28;20061;-88
2022/03/09 07:02:00;;;;;;;7.75;2.53;;;-2.30;99.90;;;;;;10247611;28;20057;-89
2022/03/09 07:07:09;;;;;;;9.32;2.85;;;-2.20;99.90;;;;;;10159048;28;20096;-90
2022/03/09 07:12:15;;;;;;;9.32;2.85;;;-2.00;99.90;;;;;;10199090;28;20420;-91
2022/03/09 07:17:18;;;;;;;20.77;5.22;;;-1.80;99.90;;;;;;10235371;28;20155;-90
2022/03/09 07:22:22;;;;;;;16.67;4.03;;;-1.70;99.90;;;;;;10247897;28;20102;-90
2022/03/09 07:27:26;;;;;;;8.85;3.13;;;-1.50;99.90;;;;;;10215021;28;20106;-91
2022/03/09 07:32:30;;;;;;;7.55;3.08;;;-1.30;99.90;;;;;;10202849;28;20043;-91
2022/03/09 07:37:51;;;;;;;10.38;4.05;;;-1.10;99.90;;;;;;10142889;28;20123;-91
2022/03/09 07:42:55;;;;;;;8.40;3.05;;;-0.90;99.90;;;;;;10218594;28;20054;-90
2022/03/09 07:47:57;;;;;;;8.15;3.38;;;-0.70;99.90;;;;;;10219633;28;20094;-91
2022/03/09 07:52:59;;;;;;;6.72;2.97;;;-0.60;99.90;;;;;;10230035;28;20054;-91
2022/03/09 07:58:03;;;;;;;6.45;2.45;;;-0.30;96.20;;;;;;10117749;28;20054;-91
2022/03/09 08:03:05;;;;;;;6.88;2.58;;;0.00;93.20;;;;;;10242536;28;20077;-91
2022/03/09 08:08:28;;;;;;;5.57;2.05;;;0.10;92.60;;;;;;10133678;28;20051;-91
2022/03/09 08:13:30;;;;;;;8.35;2.42;;;0.40;89.60;;;;;;10178685;28;20054;-91
2022/03/09 08:18:48;;;;;;;11.50;2.30;;;0.60;86.70;;;;;;9979611;28;20052;-91
2022/03/09 08:24:07;;;;;;;8.43;2.65;;;0.90;84.80;;;;;;9912153;28;20054;-91
2022/03/09 08:29:24;;;;;;;7.20;2.88;;;1.20;88.10;;;;;;9976007;28;20055;-91
2022/03/09 08:34:42;;;;;;;6.03;2.33;;;1.40;90.00;;;;;;9837794;28;20473;-91
2022/03/09 08:40:02;;;;;;;6.18;2.40;;;1.60;83.50;;;;;;9883631;28;20114;-91
2022/03/09 08:45:12;;;;;;;6.53;2.42;;;1.80;80.20;;;;;;9931207;28;20046;-91
2022/03/09 08:50:35;;;;;;;5.85;2.10;;;2.00;78.40;;;;;;10081671;28;20099;-91
2022/03/09 08:55:42;;;;;;;6.70;2.35;;;2.20;76.60;;;;;;10168704;28;20125;-91
2022/03/09 09:00:44;;;;;;;5.70;2.13;;;2.40;75.90;;;;;;10202191;28;20581;-91
2022/03/09 09:05:52;;;;;;;4.38;2.00;;;2.50;74.30;;;;;;10121834;28;20061;-91
2022/03/09 09:11:00;;;;;;;6.88;2.40;;;2.80;74.40;;;;;;10134068;28;20050;-91
2022/03/09 09:16:03;;;;;;;5.22;3.03;;;2.90;73.00;;;;;;10063524;28;20056;-91
2022/03/09 09:21:07;;;;;;;5.75;2.42;;;3.20;72.80;;;;;;10229005;28;21168;-91
2022/03/09 09:26:09;;;;;;;7.18;2.75;;;3.40;71.70;;;;;;10250524;28;20047;-91
2022/03/09 09:31:32;;;;;;;7.68;2.97;;;3.60;70.90;;;;;;10253409;28;20056;-90
2022/03/09 09:36:35;;;;;;;9.77;3.83;;;3.80;70.60;;;;;;10257917;28;20565;-91
2022/03/09 09:41:37;;;;;;;6.05;2.80;;;4.00;70.40;;;;;;10242527;28;20058;-91
2022/03/09 09:46:41;;;;;;;8.30;3.00;;;4.10;69.70;;;;;;10227913;28;20059;-91
2022/03/09 09:51:45;;;;;;;11.73;3.50;;;4.30;69.40;;;;;;10262006;28;20050;-91
2022/03/09 09:56:49;;;;;;;8.52;3.55;;;4.50;68.60;;;;;;10268733;28;20047;-91
2022/03/09 10:01:51;;;;;;;8.30;3.47;;;4.80;68.00;;;;;;10239074;28;20041;-91
2022/03/09 10:06:53;;;;;;;8.73;3.97;;;5.00;66.90;;;;;;10267855;28;20043;-91
2022/03/09 10:11:56;;;;;;;7.80;3.55;;;5.20;64.90;;;;;;10268622;28;20062;-90
2022/03/09 10:17:03;;;;;;;10.38;3.63;;;5.40;64.70;;;;;;10237684;28;20047;-91
2022/03/09 10:22:25;;;;;;;10.23;3.57;;;5.60;63.80;;;;;;10243050;28;20058;-91
2022/03/09 10:27:50;;;;;;;10.10;3.30;;;5.80;63.10;;;;;;10282465;28;20035;-91
2022/03/09 10:32:54;;;;;;;10.93;3.75;;;6.00;63.40;;;;;;10248772;28;20051;-91
2022/03/09 10:37:57;;;;;;;7.97;4.15;;;6.20;61.20;;;;;;10233404;28;20134;-91
2022/03/09 11:03:20;;;;;;;7.93;3.38;;;6.90;57.00;;;;;;10392923;27;20796;-64
2022/03/09 11:08:29;;;;;;;7.47;3.47;;;7.00;58.00;;;;;;10388122;28;20041;-64
2022/03/09 11:13:38;;;;;;;6.63;3.70;;;7.20;57.70;;;;;;10371112;28;20131;-64
2022/03/09 11:18:40;;;;;;;9.27;4.07;;;7.40;57.70;;;;;;10380088;28;20480;-64
2022/03/09 11:23:41;;;;;;;9.18;3.92;;;7.50;55.70;;;;;;10386281;28;20108;-64
2022/03/09 11:28:45;;;;;;;13.82;3.85;;;7.70;55.20;;;;;;10438976;28;20068;-64
2022/03/09 11:33:53;;;;;;;10.80;4.32;;;7.90;54.20;;;;;;10452407;28;20098;-64
2022/03/09 11:39:04;;;;;;;9.23;3.60;;;8.10;53.80;;;;;;10453715;28;20741;-64
2022/03/09 11:44:18;;;;;;;7.95;3.40;;;8.20;52.40;;;;;;10450347;28;20096;-66
2022/03/09 11:49:20;;;;;;;7.35;3.60;;;8.60;51.20;;;;;;10443851;28;20048;-65
2022/03/09 11:54:46;;;;;;;7.93;3.58;;;9.20;50.50;;;;;;10454060;28;20048;-63
2022/03/09 12:00:13;;;;;;;8.18;3.47;;;10.30;47.40;;;;;;10442331;28;20091;-63
2022/03/09 12:05:42;;;;;;;9.43;4.55;;;12.10;43.50;;;;;;10453136;28;20045;-63
2022/03/09 12:10:56;;;;;;;4.90;3.60;;;13.30;40.80;;;;;;10446301;28;20059;-63
2022/03/09 12:16:07;;;;;;;5.13;3.67;;;;;;;;;;10422112;28;20051;-63
2022/03/09 12:21:13;;;;;;;8.05;4.28;;;17.40;33.40;;;;;;10422738;28;20151;-63
2022/03/09 12:26:38;;;;;;;7.82;3.40;;;18.00;32.60;;;;;;10421655;28;20106;-64
2022/03/09 12:31:40;;;;;;;7.25;3.92;;;18.10;32.30;;;;;;10423632;28;20045;-64
2022/03/09 12:36:42;;;;;;;5.80;3.90;;;19.60;30.00;;;;;;10421268;28;20522;-64
2022/03/09 12:41:44;;;;;;;5.78;4.15;;;18.70;30.20;;;;;;10402128;28;20045;-64
2022/03/09 12:46:49;;;;;;;6.68;3.85;;;19.90;30.80;;;;;;10421455;28;20101;-64
2022/03/09 12:51:57;;;;;;;6.53;3.80;;;21.00;30.00;;;;;;10423602;28;20390;-64
2022/03/09 12:57:22;;;;;;;5.95;3.55;;;21.00;27.90;;;;;;10415076;28;20121;-64
2022/03/09 13:02:35;;;;;;;6.18;3.85;;;21.60;28.40;;;;;;10414612;28;20080;-64
2022/03/09 13:07:37;;;;;;;9.65;3.30;;;21.90;28.60;;;;;;10406083;28;20044;-63
2022/03/09 13:12:56;;;;;;;8.65;4.38;;;21.60;27.60;;;;;;10419273;28;20088;-63
2022/03/09 13:17:58;;;;;;;5.45;3.67;;;21.30;27.50;;;;;;10416752;28;20044;-65
2022/03/09 13:22:59;;;;;;;8.23;3.60;;;23.40;27.30;;;;;;10418717;28;20073;-65
2022/03/09 13:28:06;;;;;;;9.95;3.85;;;21.30;28.10;;;;;;10422782;28;20066;-65
2022/03/09 13:33:10;;;;;;;7.95;4.03;;;23.00;26.70;;;;;;10393169;28;20057;-65
2022/03/09 13:38:26;;;;;;;7.18;3.97;;;22.70;26.90;;;;;;10421429;28;20073;-65
2022/03/09 13:43:28;;;;;;;7.55;3.53;;;24.00;26.70;;;;;;10420656;28;20049;-65
2022/03/09 13:48:30;;;;;;;9.35;4.00;;;23.70;26.10;;;;;;10417241;28;20095;-66
2022/03/09 13:53:38;;;;;;;5.68;3.92;;;23.90;25.80;;;;;;10418328;28;20049;-66
2022/03/09 13:58:43;;;;;;;7.07;4.32;;;22.20;27.10;;;;;;10418968;28;20569;-66
2022/03/09 14:03:47;;;;;;;8.02;4.35;;;21.70;26.60;;;;;;10401881;28;20071;-65
2022/03/09 14:08:53;;;;;;;6.72;4.65;;;22.10;27.10;;;;;;10421124;28;20048;-66
2022/03/09 14:14:17;;;;;;;;;;;21.20;28.00;;;;;;10420430;28;20075;-65
2022/03/09 14:19:20;;;;;;;8.07;4.18;;;20.40;27.30;;;;;;10421709;28;20201;-65
2022/03/09 14:24:23;;;;;;;5.65;4.25;;;21.50;27.80;;;;;;10414743;28;20041;-65
2022/03/09 14:29:26;;;;;;;7.65;4.47;;;22.20;27.10;;;;;;10416365;28;20045;-61
2022/03/09 14:34:27;;;;;;;8.55;4.38;;;22.10;27.20;;;;;;10420251;28;20068;-61
2022/03/09 14:39:29;;;;;;;6.70;4.50;;;20.80;27.90;;;;;;10415675;28;20040;-61
2022/03/09 14:44:31;;;;;;;8.63;5.30;;;20.90;28.30;;;;;;10412597;28;20136;-61
2022/03/09 14:49:34;;;;;;;7.35;4.95;;;20.30;28.30;;;;;;10414295;28;20049;-61
2022/03/09 14:54:36;;;;;;;10.82;5.38;;;19.90;27.60;;;;;;10418367;28;20076;-62
2022/03/09 14:59:38;;;;;;;12.18;5.05;;;19.00;28.40;;;;;;10415467;28;20041;-61
2022/03/09 15:04:39;;;;;;;11.48;5.28;;;18.90;29.30;;;;;;10418745;28;20056;-61
2022/03/09 15:09:41;;;;;;;7.63;4.50;;;18.90;29.80;;;;;;10415552;28;20648;-61
2022/03/09 15:14:43;;;;;;;8.38;4.85;;;19.10;29.30;;;;;;10412319;28;20057;-61
2022/03/09 15:19:44;;;;;;;9.50;4.70;;;18.10;28.40;;;;;;10413000;28;20049;-61
2022/03/09 15:24:46;;;;;;;8.18;4.93;;;17.60;30.30;;;;;;10411559;28;20054;-63
2022/03/09 15:29:48;;;;;;;9.60;4.60;;;17.50;31.40;;;;;;10416703;28;20590;-63
2022/03/09 15:34:50;;;;;;;10.07;4.50;;;17.70;30.90;;;;;;10418047;28;20069;-63
2022/03/09 15:39:55;;;;;;;10.45;5.38;;;17.20;30.00;;;;;;10416425;28;20072;-62
2022/03/09 15:44:57;;;;;;;13.52;5.53;;;17.50;30.80;;;;;;10413196;28;20051;-62
2022/03/09 15:49:59;;;;;;;8.73;4.55;;;17.40;30.60;;;;;;10422428;28;20064;-62
2022/03/09 15:55:02;;;;;;;12.23;5.07;;;17.30;31.50;;;;;;10424946;28;20194;-63
2022/03/09 16:00:07;;;;;;;9.25;4.95;;;17.10;31.50;;;;;;10422718;28;20500;-63
2022/03/09 16:05:10;;;;;;;12.07;5.23;;;16.50;32.00;;;;;;10425124;28;20036;-61
2022/03/09 16:10:15;;;;;;;8.57;5.00;;;16.30;33.30;;;;;;10425235;28;20073;-62
2022/03/09 16:15:16;;;;;;;10.13;4.47;;;16.20;33.80;;;;;;10419209;28;20048;-64
2022/03/09 16:20:19;;;;;;;10.02;5.20;;;16.00;33.90;;;;;;10415860;28;20048;-63
2022/03/09 16:25:22;;;;;;;13.80;5.32;;;15.70;34.20;;;;;;10423794;28;20053;-63
2022/03/09 16:30:25;;;;;;;9.95;5.20;;;15.30;34.60;;;;;;10420306;28;20462;-63
2022/03/09 16:35:28;;;;;;;11.63;5.05;;;14.90;34.10;;;;;;10425043;28;20072;-65
2022/03/09 16:40:29;;;;;;;9.35;5.05;;;14.60;35.70;;;;;;10425627;28;20060;-64
2022/03/09 16:45:34;;;;;;;10.27;4.70;;;14.10;36.30;;;;;;10425086;28;20053;-64
2022/03/09 16:50:36;;;;;;;13.57;5.32;;;13.60;37.20;;;;;;10423865;28;20553;-63
2022/03/09 16:55:37;;;;;;;11.85;5.78;;;13.40;38.00;;;;;;10423023;28;20045;-63
2022/03/09 17:00:39;;;;;;;10.25;4.95;;;13.00;38.80;;;;;;10423884;28;20136;-64
2022/03/09 17:05:41;;;;;;;13.13;4.85;;;12.80;41.60;;;;;;10419144;28;20149;-63
2022/03/09 17:10:42;;;;;;;9.43;4.78;;;12.40;45.80;;;;;;10417576;28;20098;-63
2022/03/09 17:15:44;;;;;;;13.77;5.10;;;12.00;47.90;;;;;;10422386;28;20076;-64
2022/03/09 17:20:46;;;;;;;10.57;5.20;;;11.70;46.90;;;;;;10405241;28;20057;-63
2022/03/09 17:25:48;;;;;;;10.98;4.85;;;11.20;43.80;;;;;;10421246;28;20044;-63
2022/03/09 17:30:50;;;;;;;14.27;5.78;;;10.90;44.20;;;;;;10410918;28;20056;-62
2022/03/09 17:35:52;;;;;;;33.67;10.02;;;10.60;45.90;;;;;;10419006;28;20048;-63
2022/03/09 17:40:54;;;;;;;16.60;6.50;;;10.20;47.30;;;;;;10421099;28;20090;-63
2022/03/09 17:45:55;;;;;;;16.50;6.82;;;9.90;49.20;;;;;;10416985;28;20056;-62
2022/03/09 17:50:57;;;;;;;16.48;5.78;;;9.50;50.90;;;;;;10413844;28;20041;-62
2022/03/09 17:55:59;;;;;;;18.90;6.80;;;9.30;51.80;;;;;;10418727;28;20072;-62
2022/03/09 18:01:01;;;;;;;20.42;8.35;;;9.00;51.80;;;;;;10416932;28;20146;-62
2022/03/09 18:06:03;;;;;;;18.80;7.78;;;8.70;51.30;;;;;;10416661;28;20064;-61
2022/03/09 18:11:05;;;;;;;16.60;6.88;;;8.40;54.30;;;;;;10418415;28;20057;-62
2022/03/09 18:16:27;;;;;;;13.95;7.05;;;8.10;56.90;;;;;;10420807;28;20048;-62
2022/03/09 18:21:35;;;;;;;18.90;7.07;;;7.80;54.90;;;;;;10417072;28;20060;-61
2022/03/09 18:26:37;;;;;;;18.92;6.95;;;7.50;57.10;;;;;;10418667;28;20045;-62
2022/03/09 18:31:39;;;;;;;13.43;6.55;;;7.30;58.60;;;;;;10418695;28;20150;-62
2022/03/09 18:36:41;;;;;;;17.15;7.57;;;7.10;60.80;;;;;;10421495;28;20076;-62
2022/03/09 18:41:43;;;;;;;16.17;7.10;;;;;;;;;;10420877;28;20053;-62
2022/03/09 18:46:45;;;;;;;28.92;11.55;;;6.50;61.20;;;;;;10403025;28;20084;-61
2022/03/09 18:51:47;;;;;;;19.88;8.18;;;6.30;61.80;;;;;;10413703;28;20076;-62
2022/03/09 18:56:48;;;;;;;42.67;7.72;;;6.10;62.50;;;;;;10414543;28;20434;-62
2022/03/09 19:01:51;;;;;;;17.95;6.70;;;6.00;64.00;;;;;;10416701;28;20069;-61
2022/03/09 19:06:53;;;;;;;19.48;6.55;;;5.80;65.70;;;;;;10418691;28;20126;-62
2022/03/09 19:11:55;;;;;;;20.52;6.05;;;5.60;65.20;;;;;;10416852;28;20576;-62
2022/03/09 19:16:57;;;;;;;17.10;5.93;;;5.40;67.70;;;;;;10413838;28;20052;-62
2022/03/09 19:22:06;;;;;;;16.67;6.22;;;5.20;67.80;;;;;;10416468;28;20045;-62
2022/03/09 19:27:07;;;;;;;15.63;6.22;;;5.10;68.30;;;;;;10424469;28;20073;-61
2022/03/09 19:32:09;;;;;;;16.92;6.70;;;4.90;68.40;;;;;;10412241;28;20045;-60
2022/03/09 19:37:11;;;;;;;15.95;6.57;;;4.70;68.80;;;;;;10425477;28;20053;-61
2022/03/09 19:42:17;;;;;;;17.58;6.50;;;4.60;69.20;;;;;;10419661;28;20049;-61
2022/03/09 19:47:18;;;;;;;15.25;6.05;;;4.40;70.30;;;;;;10418019;28;20124;-61
2022/03/09 19:52:24;;;;;;;15.13;6.25;;;4.30;69.10;;;;;;10428280;28;20136;-61
2022/03/09 19:57:26;;;;;;;14.43;6.00;;;4.20;71.10;;;;;;10415479;28;20179;-61
2022/03/09 20:02:28;;;;;;;16.52;7.63;;;4.00;72.00;;;;;;10426652;28;20055;-61
2022/03/09 20:07:30;;;;;;;22.42;6.88;;;3.90;73.00;;;;;;10427298;28;20056;-61
2022/03/09 20:12:35;;;;;;;19.20;7.40;;;3.70;73.90;;;;;;10425934;28;20051;-62
2022/03/09 20:17:37;;;;;;;22.00;7.40;;;3.60;75.20;;;;;;10426291;28;20124;-62
2022/03/09 20:22:42;;;;;;;11.68;6.38;;;3.40;74.80;;;;;;10427629;28;20041;-61
2022/03/09 20:27:44;;;;;;;21.27;6.15;;;3.30;76.10;;;;;;10427038;28;20065;-61
2022/03/09 20:32:46;;;;;;;15.35;6.47;;;3.20;75.90;;;;;;10424997;28;20533;-61
2022/03/09 20:37:48;;;;;;;18.35;7.13;;;3.10;76.30;;;;;;10429589;28;20056;-65
2022/03/09 20:42:50;;;;;;;16.02;7.13;;;3.00;77.60;;;;;;10424113;28;20107;-61
2022/03/09 20:47:51;;;;;;;15.70;6.25;;;2.90;78.00;;;;;;10429281;28;20069;-61
2022/03/09 20:52:55;;;;;;;15.27;7.18;;;2.80;78.90;;;;;;10426988;28;20048;-61
2022/03/09 20:57:57;;;;;;;18.38;6.93;;;2.70;79.40;;;;;;10427881;28;20049;-61
2022/03/09 21:03:00;;;;;;;19.75;6.50;;;2.50;79.50;;;;;;10424295;28;20049;-61
2022/03/09 21:08:02;;;;;;;19.63;6.57;;;2.50;79.70;;;;;;10425010;28;20121;-62
2022/03/09 21:13:07;;;;;;;19.63;7.75;;;2.40;81.70;;;;;;10427938;28;20048;-62
2022/03/09 21:18:09;;;;;;;17.13;7.72;;;2.30;82.40;;;;;;10426949;28;20868;-62
2022/03/09 21:23:10;;;;;;;27.65;8.10;;;2.20;82.70;;;;;;10409777;28;20044;-61
2022/03/09 21:28:12;;;;;;;28.60;8.18;;;2.10;83.40;;;;;;10427440;28;20049;-62
2022/03/09 21:33:14;;;;;;;21.02;8.35;;;2.10;83.80;;;;;;10425692;28;20091;-62
2022/03/09 21:38:16;;;;;;;24.13;8.30;;;2.00;84.80;;;;;;10425034;28;20041;-62
2022/03/09 21:43:17;;;;;;;20.33;7.53;;;1.90;85.10;;;;;;10434057;28;20102;-61
2022/03/09 21:48:19;;;;;;;19.23;6.93;;;1.80;85.30;;;;;;10434854;28;20499;-61
2022/03/09 21:53:21;;;;;;;21.17;7.38;;;1.70;86.70;;;;;;10428251;28;20040;-61
2022/03/09 21:58:23;;;;;;;17.63;7.20;;;1.70;87.60;;;;;;10428924;28;20053;-61
2022/03/09 22:03:24;;;;;;;17.67;6.85;;;1.60;87.60;;;;;;10419366;28;20509;-61
2022/03/09 22:08:26;;;;;;;16.48;6.50;;;1.50;88.10;;;;;;10422718;28;20446;-62
2022/03/09 22:13:28;;;;;;;15.90;6.15;;;1.40;87.80;;;;;;10424501;28;20084;-61
2022/03/09 22:18:29;;;;;;;15.45;6.25;;;1.40;87.10;;;;;;10425163;28;20061;-62
2022/03/09 22:23:31;;;;;;;12.38;5.03;;;1.40;85.70;;;;;;10425147;28;20049;-62
2022/03/09 22:28:33;;;;;;;14.10;5.65;;;1.40;86.30;;;;;;10418149;28;20053;-61
2022/03/09 22:33:35;;;;;;;13.38;5.40;;;1.30;87.10;;;;;;10422656;28;20506;-61
2022/03/09 22:38:37;;;;;;;16.75;5.22;;;1.30;87.50;;;;;;10425623;28;20049;-62
2022/03/09 22:43:39;;;;;;;16.67;4.75;;;1.20;87.40;;;;;;10418658;28;20073;-61
2022/03/09 22:48:40;;;;;;;14.90;4.82;;;1.20;88.40;;;;;;10419502;28;20111;-61
2022/03/09 22:53:42;;;;;;;13.25;5.18;;;1.10;88.40;;;;;;10423320;28;20076;-61
2022/03/09 22:58:43;;;;;;;14.88;4.80;;;1.10;88.50;;;;;;10419846;28;20102;-61
2022/03/09 23:03:48;;;;;;;13.27;9.75;;;1.00;89.90;;;;;;10071164;28;20305;-62
2022/03/09 23:08:50;;;;;;;14.30;10.88;;;1.00;90.00;;;;;;9769497;28;20045;-61
2022/03/09 23:13:52;;;;;;;11.68;9.55;;;0.90;90.00;;;;;;9758874;28;20181;-62
2022/03/09 23:18:54;;;;;;;12.40;10.23;;;0.80;90.50;;;;;;9781162;28;20797;-61
2022/03/09 23:23:56;;;;;;;14.00;10.45;;;0.80;91.30;;;;;;9751804;28;20049;-62
2022/03/09 23:28:58;;;;;;;12.32;9.82;;;0.70;91.60;;;;;;9754207;28;20131;-62
2022/03/09 23:34:02;;;;;;;13.52;9.95;;;0.70;92.10;;;;;;9783747;28;20685;-62
2022/03/09 23:39:04;;;;;;;21.20;10.40;;;0.60;92.60;;;;;;9778744;28;20063;-62
2022/03/09 23:44:06;;;;;;;16.02;9.40;;;0.50;93.40;;;;;;9771843;28;20060;-62
2022/03/09 23:49:08;;;;;;;14.63;9.82;;;0.50;93.50;;;;;;9755624;28;20985;-62
2022/03/09 23:54:11;;;;;;;12.10;9.63;;;0.40;94.10;;;;;;9764094;28;20805;-62
2022/03/09 23:59:13;;;;;;;14.40;9.82;;;0.40;94.20;;;;;;9752446;28;20134;-62
